Date,TemperatureHighF,TemperatureAvgF,TemperatureLowF,DewpointHighF,DewpointAvgF,DewpointLowF,HumidityHigh,HumidityAvg,HumidityLow,PressureMaxIn,PressureMinIn,WindSpeedMaxMPH,WindSpeedAvgMPH,GustSpeedMaxMPH,PrecipitationSumIn
2013-1-1,24.6,13.5,2.3,24.4,11.4,0.3,99,91,82,29.67,29.47,19,9,0,0.00
2013-1-2,5.7,-4.3,-14.1,1.4,-7.5,-16.6,92,86,78,30.00,29.68,15,5,0,0.00
2013-1-3,9.3,-5.7,-18.8,1.4,-9.3,-21.2,93,85,53,30.04,29.75,9,2,0,0.00
2013-1-4,25.2,18.5,3.2,25.0,17.7,1.6,99,97,91,29.75,29.53,16,6,0,0.00
2013-1-5,24.8,17.4,-2.7,24.6,15.4,-4.2,99,92,79,30.10,29.56,26,6,0,0.00
2013-1-6,28.2,22.6,9.5,24.3,21.1,8.8,99,94,79,29.90,29.76,0,0,0,0.00
2013-1-7,21.9,8.7,-7.2,21.7,7.1,-8.9,99,93,75,30.23,29.82,0,0,0,0.00
2013-1-8,32.5,20.4,-6.5,26.5,18.0,-7.8,98,91,72,30.26,30.05,11,2,0,0.00
2013-1-9,29.3,24.5,18.3,26.5,23.5,18.1,99,96,79,30.28,30.19,3,1,0,0.00
2013-1-11,36.0,29.6,15.8,25.7,22.3,12.9,91,74,54,30.35,30.06,9,4,0,0.00
2013-1-12,43.0,33.1,27.5,37.6,32.0,26.5,99,96,81,30.07,29.97,5,2,0,0.17
2013-1-13,51.1,37.3,27.7,44.2,34.8,27.5,99,92,70,30.06,29.82,6,2,0,0.01
2013-1-14,47.1,39.6,32.9,46.8,36.7,25.7,99,90,64,30.06,29.81,16,10,0,0.01
2013-1-15,26.4,23.7,14.5,21.9,19.5,13.6,99,84,76,30.21,30.13,12,4,0,0.00
2013-1-16,26.6,23.9,17.2,26.2,22.4,16.7,99,94,86,30.02,29.63,6,2,0,0.00
2013-1-17,27.0,12.8,-6.2,25.9,9.1,-9.5,99,85,55,30.02,29.61,16,4,0,0.00
2013-1-18,8.2,-3.5,-17.0,-4.3,-10.4,-19.1,92,74,48,30.17,29.96,16,4,0,0.00
2013-1-19,29.3,17.8,-0.8,25.5,15.0,-4.0,96,89,77,30.10,29.67,6,1,0,0.00
2013-1-20,41.9,24.2,3.4,32.0,19.8,-2.2,99,84,59,29.73,29.27,25,9,0,0.00
2013-1-21,10.2,2.3,-6.5,-1.5,-4.9,-9.1,91,72,52,29.86,29.70,16,5,0,0.00
2013-1-22,10.2,0.5,-9.0,2.5,-3.4,-12.9,93,83,68,29.82,29.62,19,5,0,0.00
2013-1-23,-8.9,-14.8,-23.1,-14.3,-20.5,-26.2,85,75,58,29.92,29.82,16,6,0,0.00
2013-1-24,-1.7,-11.7,-23.1,-11.6,-17.2,-26.2,86,76,51,30.06,29.81,23,7,0,0.00
2013-1-25,7.0,-2.7,-8.0,-4.9,-7.9,-11.8,85,78,57,30.10,29.91,14,4,0,0.00
2013-1-26,7.9,0.1,-12.5,0.3,-6.3,-15.0,91,75,52,30.05,29.89,11,4,0,0.00
2013-1-27,10.0,0.3,-10.8,-0.2,-5.1,-13.3,89,78,54,30.34,30.05,18,5,0,0.00
2013-1-28,27.0,6.9,-11.9,14.3,0.5,-14.7,95,78,31,30.32,29.92,5,1,0,0.00
2013-1-29,37.6,20.3,0.1,25.2,14.7,-1.2,97,81,48,30.08,29.93,10,2,0,0.02
2013-1-30,51.1,41.2,27.7,50.4,40.7,25.7,99,98,91,29.93,29.24,8,4,0,0.23
2013-1-31,48.0,33.0,10.9,47.7,29.7,8.0,99,88,59,29.30,28.69,38,10,0,0.73